Wetterdaten: Woche 14.08.06 - 20.08.06 (KW33)
Datum Zeit Temperatur Luftfeuchte Luftdruck Niederschlag Wind Richtung Sonnenschein UV-Strahlung Solar Taupunkt Windchill Windben
14.08.2006 00:00 12.2 C 92 % 1010.3 hPa 0.0 l/m 1.6 km/h (1 Bft) S-SO 0.00 h 0.0 UV-I 0 W/m 11.0 C 12.2 C 4.3 km/h (1 Bft)
14.08.2006 01:00 12.2 C 91 % 1010.5 hPa 0.0 l/m 1.6 km/h (1 Bft) W-SW 0.00 h 0.0 UV-I 0 W/m 10.7 C 12.2 C 4.1 km/h (1 Bft)
14.08.2006 02:00 12.3 C 88 % 1010.1 hPa 0.0 l/m 2.6 km/h (1 Bft) S-SO 0.00 h 0.0 UV-I 0 W/m 10.4 C 12.3 C 5.0 km/h (1 Bft)
14.08.2006 03:00 12.1 C 88 % 1009.6 hPa 0.0 l/m 3.0 km/h (1 Bft) S-SO 0.00 h 0.0 UV-I 0 W/m 10.1 C 12.1 C 5.5 km/h (1 Bft)
14.08.2006 04:00 11.6 C 90 % 1009.6 hPa 0.0 l/m 1.2 km/h (1 Bft) S-SO 0.00 h 0.0 UV-I 0 W/m 10.1 C 11.6 C 2.6 km/h (1 Bft)
14.08.2006 05:00 11.4 C 90 % 1009.4 hPa 0.0 l/m 0.8 km/h (0 Bft) S-SO 0.00 h 0.0 UV-I 0 W/m 9.9 C 11.4 C 2.5 km/h (1 Bft)
14.08.2006 06:00 11.4 C 93 % 1009.5 hPa 0.6 l/m 0.6 km/h (0 Bft) S-SW 0.05 h 0.0 UV-I 12 W/m 10.3 C 11.4 C 1.6 km/h (1 Bft)
14.08.2006 07:00 11.3 C 96 % 1009.7 hPa 0.2 l/m 1.0 km/h (0 Bft) SO 0.00 h 0.0 UV-I 14 W/m 10.7 C 11.3 C 2.3 km/h (1 Bft)
14.08.2006 08:00 11.8 C 94 % 1009.7 hPa 0.0 l/m 3.0 km/h (1 Bft) S-SO 0.00 h 0.6 UV-I 69 W/m 10.9 C 11.8 C 6.0 km/h (2 Bft)
14.08.2006 09:00 12.8 C 90 % 1009.6 hPa 0.0 l/m 5.9 km/h (2 Bft) S-SO 0.00 h 1.0 UV-I 165 W/m 11.3 C 12.8 C 11.7 km/h (2 Bft)
14.08.2006 10:00 12.6 C 93 % 1009.8 hPa 1.4 l/m 5.4 km/h (1 Bft) W-SW 0.00 h 0.8 UV-I 84 W/m 11.4 C 12.6 C 10.9 km/h (2 Bft)
14.08.2006 11:00 12.5 C 94 % 1010.1 hPa 0.4 l/m 5.1 km/h (1 Bft) S 0.00 h 1.3 UV-I 129 W/m 11.5 C 12.5 C 10.1 km/h (2 Bft)
14.08.2006 12:00 13.1 C 95 % 1010.3 hPa 1.0 l/m 4.5 km/h (1 Bft) W-SW 0.00 h 1.7 UV-I 168 W/m 12.3 C 13.1 C 8.9 km/h (2 Bft)
14.08.2006 13:00 13.3 C 96 % 1010.5 hPa 0.6 l/m 2.6 km/h (1 Bft) W-NW 0.00 h 1.4 UV-I 139 W/m 12.7 C 13.3 C 4.7 km/h (1 Bft)
14.08.2006 14:00 13.2 C 93 % 1010.9 hPa 0.2 l/m 8.1 km/h (2 Bft) W 0.00 h 1.2 UV-I 122 W/m 12.1 C 13.2 C 13.4 km/h (3 Bft)
14.08.2006 15:00 13.7 C 88 % 1011.3 hPa 0.0 l/m 9.0 km/h (2 Bft) W 0.00 h 1.6 UV-I 188 W/m 11.8 C 13.7 C 15.0 km/h (3 Bft)
14.08.2006 16:00 14.7 C 83 % 1011.7 hPa 0.0 l/m 8.3 km/h (2 Bft) W-SW 0.00 h 1.4 UV-I 178 W/m 11.9 C 14.7 C 15.1 km/h (3 Bft)
14.08.2006 17:00 13.8 C 89 % 1012.4 hPa 0.2 l/m 7.2 km/h (2 Bft) W 0.00 h 0.7 UV-I 93 W/m 12.0 C 13.8 C 11.5 km/h (2 Bft)
14.08.2006 18:00 15.0 C 89 % 1012.5 hPa 0.0 l/m 1.3 km/h (1 Bft) W-SW 0.67 h 0.8 UV-I 239 W/m 13.1 C 15.0 C 3.2 km/h (1 Bft)
14.08.2006 19:00 15.8 C 84 % 1012.2 hPa 0.0 l/m 2.7 km/h (1 Bft) W 0.70 h 0.6 UV-I 115 W/m 13.2 C 15.8 C 4.9 km/h (1 Bft)
14.08.2006 20:00 13.9 C 92 % 1012.6 hPa 0.0 l/m 0.4 km/h (0 Bft) S 0.00 h 0.0 UV-I 13 W/m 12.6 C 13.9 C 1.4 km/h (1 Bft)
14.08.2006 21:00 12.8 C 94 % 1013.3 hPa 0.0 l/m 1.7 km/h (1 Bft) SO 0.00 h 0.0 UV-I 0 W/m 11.9 C 12.8 C 3.0 km/h (1 Bft)
14.08.2006 22:00 11.9 C 95 % 1013.5 hPa 0.0 l/m 0.6 km/h (0 Bft) SO 0.00 h 0.0 UV-I 0 W/m 11.1 C 11.9 C 1.2 km/h (1 Bft)
14.08.2006 23:00 11.7 C 93 % 1013.5 hPa 0.0 l/m 2.3 km/h (1 Bft) S-SO 0.00 h 0.0 UV-I 0 W/m 10.6 C 11.7 C 3.9 km/h (1 Bft)
15.08.2006 00:00 11.4 C 95 % 1013.5 hPa 0.0 l/m 0.2 km/h (0 Bft) S-SO 0.00 h 0.0 UV-I 0 W/m 10.5 C 11.4 C 0.9 km/h (0 Bft)
15.08.2006 01:00 10.9 C 98 % 1013.5 hPa 0.0 l/m 0.1 km/h (0 Bft) S-SO 0.00 h 0.0 UV-I 0 W/m 10.6 C 10.9 C 0.6 km/h (0 Bft)
15.08.2006 02:00 11.0 C 99 % 1013.4 hPa 0.0 l/m 0.9 km/h (0 Bft) S-SO 0.00 h 0.0 UV-I 0 W/m 10.8 C 11.0 C 1.9 km/h (1 Bft)
15.08.2006 03:00 11.5 C 97 % 1013.4 hPa 0.0 l/m 1.0 km/h (0 Bft) S-SO 0.00 h 0.0 UV-I 0 W/m 11.0 C 11.5 C 2.4 km/h (1 Bft)
15.08.2006 04:00 11.7 C 95 % 1013.4 hPa 0.0 l/m 0.2 km/h (0 Bft) S 0.00 h 0.0 UV-I 0 W/m 11.0 C 11.7 C 1.5 km/h (1 Bft)
15.08.2006 05:00 12.3 C 92 % 1013.5 hPa 0.0 l/m 0.2 km/h (0 Bft) O-SO 0.00 h 0.0 UV-I 0 W/m 10.9 C 12.3 C 1.3 km/h (1 Bft)
15.08.2006 06:00 12.6 C 90 % 1013.7 hPa 0.0 l/m 0.8 km/h (0 Bft) O-SO 0.00 h 0.0 UV-I 6 W/m 11.0 C 12.6 C 1.7 km/h (1 Bft)
15.08.2006 07:00 12.9 C 88 % 1013.7 hPa 0.0 l/m 1.7 km/h (1 Bft) SO 0.00 h 0.5 UV-I 30 W/m 11.1 C 12.9 C 3.5 km/h (1 Bft)
15.08.2006 08:00 13.7 C 86 % 1013.9 hPa 0.0 l/m 2.9 km/h (1 Bft) S-SO 0.22 h 0.8 UV-I 164 W/m 11.4 C 13.7 C 6.1 km/h (2 Bft)
15.08.2006 09:00 15.2 C 82 % 1013.9 hPa 0.0 l/m 3.4 km/h (1 Bft) S-SO 0.28 h 1.8 UV-I 264 W/m 12.1 C 15.2 C 6.7 km/h (2 Bft)
15.08.2006 10:00 17.3 C 74 % 1013.8 hPa 0.0 l/m 2.3 km/h (1 Bft) SO 0.68 h 3.3 UV-I 486 W/m 12.6 C 17.3 C 4.8 km/h (1 Bft)
15.08.2006 11:00 18.8 C 68 % 1013.4 hPa 0.0 l/m 2.5 km/h (1 Bft) W-NW 0.92 h 5.1 UV-I 682 W/m 12.8 C 18.8 C 4.9 km/h (1 Bft)
15.08.2006 12:00 19.4 C 64 % 1012.8 hPa 0.0 l/m 2.9 km/h (1 Bft) W-NW 0.58 h 5.1 UV-I 516 W/m 12.4 C 19.4 C 5.4 km/h (1 Bft)
15.08.2006 13:00 20.7 C 63 % 1012.3 hPa 0.0 l/m 3.0 km/h (1 Bft) W-NW 0.80 h 6.1 UV-I 712 W/m 13.2 C 20.7 C 5.3 km/h (1 Bft)
15.08.2006 14:00 20.7 C 59 % 1011.8 hPa 0.0 l/m 3.0 km/h (1 Bft) O-SO 0.47 h 4.7 UV-I 461 W/m 12.3 C 20.7 C 4.9 km/h (1 Bft)
15.08.2006 15:00 21.5 C 57 % 1011.2 hPa 0.0 l/m 3.3 km/h (1 Bft) O-SO 0.75 h 4.7 UV-I 586 W/m 12.5 C 21.5 C 5.1 km/h (1 Bft)
15.08.2006 16:00 22.4 C 53 % 1010.3 hPa 0.0 l/m 2.6 km/h (1 Bft) O-SO 0.83 h 3.2 UV-I 500 W/m 12.2 C 22.4 C 4.5 km/h (1 Bft)
15.08.2006 17:00 22.7 C 47 % 1009.6 hPa 0.0 l/m 1.4 km/h (1 Bft) O-SO 1.00 h 2.0 UV-I 407 W/m 10.8 C 22.7 C 3.3 km/h (1 Bft)
15.08.2006 18:00 22.5 C 49 % 1009.3 hPa 0.0 l/m 1.3 km/h (1 Bft) N 0.97 h 1.0 UV-I 242 W/m 11.3 C 22.5 C 3.1 km/h (1 Bft)
15.08.2006 19:00 21.0 C 58 % 1009.0 hPa 0.0 l/m 2.2 km/h (1 Bft) O-SO 0.48 h 0.6 UV-I 101 W/m 12.4 C 21.0 C 3.9 km/h (1 Bft)
15.08.2006 20:00 18.6 C 71 % 1009.0 hPa 0.0 l/m 2.9 km/h (1 Bft) O-SO 0.07 h 0.0 UV-I 18 W/m 13.3 C 18.6 C 3.8 km/h (1 Bft)
15.08.2006 21:00 16.4 C 81 % 1009.7 hPa 0.0 l/m 2.1 km/h (1 Bft) O-SO 0.00 h 0.0 UV-I 0 W/m 13.1 C 16.4 C 3.2 km/h (1 Bft)
15.08.2006 22:00 15.0 C 86 % 1009.8 hPa 0.0 l/m 1.7 km/h (1 Bft) O-SO 0.00 h 0.0 UV-I 0 W/m 12.6 C 15.0 C 2.7 km/h (1 Bft)
15.08.2006 23:00 14.6 C 87 % 1009.5 hPa 0.0 l/m 0.5 km/h (0 Bft) O 0.00 h 0.0 UV-I 0 W/m 12.5 C 14.6 C 1.3 km/h (1 Bft)
16.08.2006 00:00 14.6 C 88 % 1009.4 hPa 0.0 l/m 0.9 km/h (0 Bft) O-SO 0.00 h 0.0 UV-I 0 W/m 12.6 C 14.6 C 1.9 km/h (1 Bft)
16.08.2006 01:00 14.4 C 93 % 1009.4 hPa 0.2 l/m 1.2 km/h (1 Bft) O 0.00 h 0.0 UV-I 0 W/m 13.2 C 14.4 C 2.2 km/h (1 Bft)
16.08.2006 02:00 14.2 C 95 % 1009.3 hPa 0.4 l/m 1.6 km/h (1 Bft) O 0.00 h 0.0 UV-I 0 W/m 13.4 C 14.2 C 2.8 km/h (1 Bft)
16.08.2006 03:00 14.0 C 95 % 1008.1 hPa 0.0 l/m 0.7 km/h (0 Bft) O-SO 0.00 h 0.0 UV-I 0 W/m 13.3 C 14.0 C 1.2 km/h (1 Bft)
16.08.2006 04:00 14.0 C 95 % 1007.2 hPa 0.0 l/m 0.0 km/h (0 Bft) N 0.00 h 0.0 UV-I 0 W/m 13.2 C 14.0 C 0.0 km/h (0 Bft)
16.08.2006 05:00 13.7 C 95 % 1007.1 hPa 0.0 l/m 0.1 km/h (0 Bft) S 0.00 h 0.0 UV-I 0 W/m 12.9 C 13.7 C 0.1 km/h (0 Bft)
16.08.2006 06:00 13.6 C 96 % 1007.3 hPa 0.2 l/m 1.6 km/h (1 Bft) O-SO 0.00 h 0.0 UV-I 6 W/m 13.0 C 13.6 C 2.3 km/h (1 Bft)
16.08.2006 07:00 14.0 C 96 % 1008.1 hPa 1.0 l/m 1.4 km/h (1 Bft) S-SO 0.00 h 0.0 UV-I 12 W/m 13.4 C 14.0 C 3.4 km/h (1 Bft)
16.08.2006 08:00 14.0 C 97 % 1008.5 hPa 2.4 l/m 0.3 km/h (0 Bft) S-SO 0.00 h 0.5 UV-I 29 W/m 13.5 C 14.0 C 1.0 km/h (0 Bft)
16.08.2006 09:00 14.4 C 97 % 1008.6 hPa 0.6 l/m 0.5 km/h (0 Bft) SO 0.00 h 0.7 UV-I 60 W/m 14.0 C 14.4 C 1.7 km/h (1 Bft)
16.08.2006 10:00 15.3 C 97 % 1008.7 hPa 0.0 l/m 1.1 km/h (1 Bft) S-SO 0.02 h 1.6 UV-I 204 W/m 14.8 C 15.3 C 3.0 km/h (1 Bft)
16.08.2006 11:00 16.5 C 94 % 1008.5 hPa 0.2 l/m 0.9 km/h (0 Bft) W 0.37 h 3.3 UV-I 355 W/m 15.5 C 16.5 C 2.3 km/h (1 Bft)
16.08.2006 12:00 17.3 C 88 % 1008.1 hPa 0.0 l/m 1.5 km/h (1 Bft) W 0.00 h 3.1 UV-I 294 W/m 15.2 C 17.3 C 3.2 km/h (1 Bft)
16.08.2006 13:00 18.2 C 83 % 1007.9 hPa 0.0 l/m 2.9 km/h (1 Bft) W-NW 0.48 h 5.2 UV-I 535 W/m 15.3 C 18.2 C 4.8 km/h (1 Bft)
16.08.2006 14:00 20.3 C 75 % 1007.1 hPa 0.0 l/m 2.7 km/h (1 Bft) W-NW 1.00 h 6.3 UV-I 761 W/m 15.7 C 20.3 C 4.7 km/h (1 Bft)
16.08.2006 15:00 21.7 C 67 % 1006.0 hPa 0.0 l/m 2.7 km/h (1 Bft) S 0.77 h 4.6 UV-I 566 W/m 15.4 C 21.7 C 5.1 km/h (1 Bft)
16.08.2006 16:00 22.0 C 63 % 1005.5 hPa 0.0 l/m 2.9 km/h (1 Bft) S-SO 0.72 h 3.0 UV-I 400 W/m 14.6 C 22.0 C 5.7 km/h (1 Bft)
16.08.2006 17:00 21.9 C 63 % 1005.3 hPa 0.0 l/m 1.6 km/h (1 Bft) S-SO 0.37 h 1.6 UV-I 258 W/m 14.6 C 21.9 C 3.7 km/h (1 Bft)
16.08.2006 18:00 21.4 C 69 % 1005.5 hPa 0.0 l/m 1.9 km/h (1 Bft) O-SO 0.00 h 0.8 UV-I 127 W/m 15.5 C 21.4 C 3.5 km/h (1 Bft)
16.08.2006 19:00 20.2 C 74 % 1005.5 hPa 0.0 l/m 4.0 km/h (1 Bft) O-SO 0.00 h 0.5 UV-I 63 W/m 15.4 C 20.2 C 6.0 km/h (2 Bft)
16.08.2006 20:00 19.0 C 77 % 1005.6 hPa 0.0 l/m 1.2 km/h (1 Bft) O 0.00 h 0.0 UV-I 17 W/m 14.8 C 19.0 C 2.5 km/h (1 Bft)
16.08.2006 21:00 18.0 C 83 % 1005.8 hPa 0.0 l/m 3.7 km/h (1 Bft) O-SO 0.00 h 0.0 UV-I 0 W/m 15.0 C 18.0 C 5.2 km/h (1 Bft)
16.08.2006 22:00 17.3 C 88 % 1005.8 hPa 0.0 l/m 0.4 km/h (0 Bft) N-NW 0.00 h 0.0 UV-I 0 W/m 15.2 C 17.3 C 1.6 km/h (1 Bft)
16.08.2006 23:00 16.7 C 91 % 1005.7 hPa 0.0 l/m 1.6 km/h (1 Bft) N-NW 0.00 h 0.0 UV-I 0 W/m 15.2 C 16.7 C 3.1 km/h (1 Bft)
17.08.2006 00:00 16.5 C 90 % 1006.0 hPa 0.0 l/m 2.7 km/h (1 Bft) O-SO 0.00 h 0.0 UV-I 0 W/m 14.9 C 16.5 C 4.5 km/h (1 Bft)
17.08.2006 01:00 16.1 C 90 % 1005.8 hPa 0.0 l/m 1.5 km/h (1 Bft) NO 0.00 h 0.0 UV-I 0 W/m 14.5 C 16.1 C 3.0 km/h (1 Bft)
17.08.2006 02:00 15.3 C 93 % 1005.4 hPa 0.0 l/m 3.1 km/h (1 Bft) O-SO 0.00 h 0.0 UV-I 0 W/m 14.2 C 15.3 C 4.5 km/h (1 Bft)
17.08.2006 03:00 14.8 C 95 % 1005.9 hPa 0.0 l/m 2.7 km/h (1 Bft) O-SO 0.00 h 0.0 UV-I 0 W/m 14.0 C 14.8 C 4.2 km/h (1 Bft)
17.08.2006 04:00 14.8 C 94 % 1006.1 hPa 0.0 l/m 2.8 km/h (1 Bft) O-SO 0.00 h 0.0 UV-I 0 W/m 13.8 C 14.8 C 4.1 km/h (1 Bft)
17.08.2006 05:00 15.3 C 90 % 1006.5 hPa 0.0 l/m 0.9 km/h (0 Bft) O-SO 0.00 h 0.0 UV-I 0 W/m 13.6 C 15.3 C 2.2 km/h (1 Bft)
17.08.2006 06:00 15.5 C 88 % 1007.1 hPa 0.0 l/m 3.7 km/h (1 Bft) W-SW 0.10 h 0.0 UV-I 18 W/m 13.6 C 15.5 C 6.7 km/h (2 Bft)
17.08.2006 07:00 16.2 C 87 % 1007.1 hPa 0.0 l/m 2.2 km/h (1 Bft) O-SO 0.00 h 0.5 UV-I 62 W/m 14.0 C 16.2 C 4.0 km/h (1 Bft)
17.08.2006 08:00 17.0 C 86 % 1007.5 hPa 0.0 l/m 1.2 km/h (1 Bft) S-SO 0.03 h 0.9 UV-I 142 W/m 14.6 C 17.0 C 3.3 km/h (1 Bft)
17.08.2006 09:00 17.8 C 84 % 1007.7 hPa 0.0 l/m 1.8 km/h (1 Bft) W-SW 0.23 h 1.5 UV-I 210 W/m 15.1 C 17.8 C 4.1 km/h (1 Bft)
17.08.2006 10:00 18.3 C 83 % 1007.8 hPa 0.0 l/m 0.9 km/h (0 Bft) W 0.00 h 2.2 UV-I 236 W/m 15.3 C 18.3 C 2.3 km/h (1 Bft)
17.08.2006 11:00 18.8 C 81 % 1007.8 hPa 0.0 l/m 0.9 km/h (0 Bft) O 0.00 h 2.4 UV-I 227 W/m 15.4 C 18.8 C 2.0 km/h (1 Bft)
17.08.2006 12:00 19.5 C 80 % 1007.6 hPa 0.0 l/m 1.4 km/h (1 Bft) N 0.00 h 3.0 UV-I 273 W/m 15.9 C 19.5 C 3.0 km/h (1 Bft)
17.08.2006 13:00 20.5 C 78 % 1007.3 hPa 0.0 l/m 2.6 km/h (1 Bft) N 0.33 h 4.3 UV-I 424 W/m 16.5 C 20.5 C 4.5 km/h (1 Bft)
17.08.2006 14:00 22.0 C 73 % 1006.8 hPa 0.0 l/m 3.2 km/h (1 Bft) N-NW 0.53 h 5.1 UV-I 558 W/m 17.0 C 22.0 C 5.3 km/h (1 Bft)
17.08.2006 15:00 23.9 C 66 % 1005.8 hPa 0.0 l/m 3.5 km/h (1 Bft) N 1.00 h 5.2 UV-I 678 W/m 17.3 C 23.9 C 6.2 km/h (2 Bft)
17.08.2006 16:00 25.2 C 57 % 1005.0 hPa 0.0 l/m 3.7 km/h (1 Bft) N 0.95 h 3.5 UV-I 528 W/m 15.9 C 25.2 C 7.3 km/h (2 Bft)
17.08.2006 17:00 25.2 C 54 % 1004.2 hPa 0.2 l/m 4.3 km/h (1 Bft) O-SO 0.98 h 2.1 UV-I 432 W/m 15.2 C 25.2 C 7.6 km/h (2 Bft)
17.08.2006 18:00 24.6 C 58 % 1003.7 hPa 0.0 l/m 7.0 km/h (2 Bft) O-SO 0.93 h 1.0 UV-I 258 W/m 15.8 C 24.6 C 11.1 km/h (2 Bft)
17.08.2006 19:00 24.4 C 61 % 1002.8 hPa 0.0 l/m 2.6 km/h (1 Bft) O 0.93 h 0.5 UV-I 140 W/m 16.3 C 24.4 C 5.4 km/h (1 Bft)
17.08.2006 20:00 22.7 C 67 % 1002.0 hPa 0.0 l/m 0.4 km/h (0 Bft) O-SO 0.00 h 0.0 UV-I 21 W/m 16.2 C 22.7 C 1.4 km/h (1 Bft)
17.08.2006 21:00 20.7 C 77 % 1002.3 hPa 0.0 l/m 0.6 km/h (0 Bft) O 0.00 h 0.0 UV-I 0 W/m 16.5 C 20.7 C 1.6 km/h (1 Bft)
17.08.2006 22:00 19.4 C 83 % 1002.7 hPa 0.0 l/m 0.5 km/h (0 Bft) O-SO 0.00 h 0.0 UV-I 0 W/m 16.5 C 19.4 C 1.4 km/h (1 Bft)
17.08.2006 23:00 18.8 C 87 % 1002.5 hPa 0.0 l/m 2.4 km/h (1 Bft) O-SO 0.00 h 0.0 UV-I 0 W/m 16.7 C 18.8 C 4.3 km/h (1 Bft)
18.08.2006 00:00 18.4 C 91 % 1001.9 hPa 0.0 l/m 2.4 km/h (1 Bft) N-NW 0.00 h 0.0 UV-I 0 W/m 16.9 C 18.4 C 4.3 km/h (1 Bft)
18.08.2006 01:00 18.5 C 89 % 1001.6 hPa 0.0 l/m 1.5 km/h (1 Bft) O 0.00 h 0.0 UV-I 0 W/m 16.7 C 18.5 C 3.0 km/h (1 Bft)
18.08.2006 02:00 18.4 C 84 % 1001.6 hPa 0.0 l/m 2.0 km/h (1 Bft) N 0.00 h 0.0 UV-I 0 W/m 15.7 C 18.4 C 4.1 km/h (1 Bft)
18.08.2006 03:00 17.7 C 87 % 1001.6 hPa 0.0 l/m 2.4 km/h (1 Bft) W-NW 0.00 h 0.0 UV-I 0 W/m 15.5 C 17.7 C 4.5 km/h (1 Bft)
18.08.2006 04:00 17.5 C 88 % 1002.5 hPa 0.0 l/m 1.8 km/h (1 Bft) N-NW 0.00 h 0.0 UV-I 0 W/m 15.4 C 17.5 C 3.4 km/h (1 Bft)
18.08.2006 05:00 15.5 C 94 % 1005.4 hPa 9.4 l/m 6.3 km/h (2 Bft) W-NW 0.00 h 0.0 UV-I 0 W/m 14.6 C 15.5 C 11.0 km/h (2 Bft)
18.08.2006 06:00 15.2 C 96 % 1007.4 hPa 0.4 l/m 2.9 km/h (1 Bft) O-SO 0.00 h 0.0 UV-I 10 W/m 14.5 C 15.2 C 5.7 km/h (1 Bft)
18.08.2006 07:00 14.6 C 93 % 1008.6 hPa 0.0 l/m 11.8 km/h (2 Bft) W-NW 0.00 h 0.0 UV-I 25 W/m 13.5 C 14.6 C 17.4 km/h (3 Bft)
18.08.2006 08:00 14.9 C 89 % 1009.8 hPa 0.0 l/m 5.6 km/h (1 Bft) W-NW 0.98 h 1.0 UV-I 257 W/m 13.1 C 14.9 C 8.8 km/h (2 Bft)
18.08.2006 09:00 16.5 C 81 % 1010.8 hPa 0.0 l/m 7.2 km/h (2 Bft) W 0.98 h 2.3 UV-I 429 W/m 13.2 C 16.5 C 12.4 km/h (3 Bft)
18.08.2006 10:00 17.9 C 70 % 1011.0 hPa 0.0 l/m 8.8 km/h (2 Bft) W 1.00 h 3.9 UV-I 582 W/m 12.3 C 17.9 C 14.3 km/h (3 Bft)
18.08.2006 11:00 19.4 C 62 % 1011.5 hPa 0.0 l/m 9.8 km/h (2 Bft) W-NW 1.00 h 5.5 UV-I 700 W/m 11.9 C 19.4 C 15.2 km/h (3 Bft)
18.08.2006 12:00 20.7 C 59 % 1011.8 hPa 0.0 l/m 5.3 km/h (1 Bft) W-NW 0.88 h 6.3 UV-I 715 W/m 12.4 C 20.7 C 8.8 km/h (2 Bft)
18.08.2006 13:00 22.3 C 58 % 1011.6 hPa 0.0 l/m 3.7 km/h (1 Bft) W-NW 1.00 h 7.1 UV-I 799 W/m 13.6 C 22.3 C 6.4 km/h (2 Bft)
18.08.2006 14:00 23.3 C 53 % 1011.8 hPa 0.0 l/m 6.5 km/h (2 Bft) W-NW 1.00 h 6.6 UV-I 769 W/m 13.3 C 23.3 C 10.0 km/h (2 Bft)
18.08.2006 15:00 24.3 C 49 % 1011.6 hPa 0.0 l/m 6.5 km/h (2 Bft) W-NW 1.00 h 5.3 UV-I 691 W/m 12.9 C 24.3 C 10.0 km/h (2 Bft)
18.08.2006 16:00 24.8 C 49 % 1011.3 hPa 0.0 l/m 5.4 km/h (1 Bft) W-NW 1.00 h 3.6 UV-I 575 W/m 13.3 C 24.8 C 8.3 km/h (2 Bft)
18.08.2006 17:00 24.9 C 47 % 1011.3 hPa 0.0 l/m 5.1 km/h (1 Bft) W-NW 1.00 h 2.0 UV-I 428 W/m 12.9 C 24.9 C 8.0 km/h (2 Bft)
18.08.2006 18:00 24.5 C 48 % 1011.5 hPa 0.0 l/m 3.1 km/h (1 Bft) N-NW 1.00 h 0.9 UV-I 268 W/m 12.9 C 24.5 C 5.3 km/h (1 Bft)
18.08.2006 19:00 23.8 C 52 % 1012.2 hPa 0.0 l/m 2.2 km/h (1 Bft) W-SW 1.00 h 0.5 UV-I 118 W/m 13.3 C 23.8 C 3.8 km/h (1 Bft)
18.08.2006 20:00 21.1 C 66 % 1012.8 hPa 0.0 l/m 0.9 km/h (0 Bft) S-SW 0.40 h 0.0 UV-I 25 W/m 14.5 C 21.1 C 1.7 km/h (1 Bft)
18.08.2006 21:00 18.7 C 79 % 1013.6 hPa 0.0 l/m 1.5 km/h (1 Bft) O-SO 0.00 h 0.0 UV-I 0 W/m 14.9 C 18.7 C 2.5 km/h (1 Bft)
18.08.2006 22:00 17.3 C 84 % 1014.2 hPa 0.0 l/m 2.7 km/h (1 Bft) O-SO 0.00 h 0.0 UV-I 0 W/m 14.6 C 17.3 C 3.6 km/h (1 Bft)
18.08.2006 23:00 16.8 C 88 % 1014.1 hPa 0.0 l/m 0.1 km/h (0 Bft) O-SO 0.00 h 0.0 UV-I 0 W/m 14.8 C 16.8 C 0.2 km/h (0 Bft)
19.08.2006 00:00 15.8 C 91 % 1013.9 hPa 0.0 l/m 0.9 km/h (0 Bft) O-SO 0.00 h 0.0 UV-I 0 W/m 14.3 C 15.8 C 1.6 km/h (1 Bft)
19.08.2006 01:00 15.1 C 92 % 1014.2 hPa 0.0 l/m 0.7 km/h (0 Bft) O-SO 0.00 h 0.0 UV-I 0 W/m 13.8 C 15.1 C 1.3 km/h (1 Bft)
19.08.2006 02:00 14.6 C 94 % 1014.5 hPa 0.0 l/m 1.3 km/h (1 Bft) O-SO 0.00 h 0.0 UV-I 0 W/m 13.5 C 14.6 C 2.4 km/h (1 Bft)
19.08.2006 03:00 14.1 C 94 % 1014.6 hPa 0.0 l/m 1.6 km/h (1 Bft) O-SO 0.00 h 0.0 UV-I 0 W/m 13.2 C 14.1 C 2.9 km/h (1 Bft)
19.08.2006 04:00 13.9 C 94 % 1014.9 hPa 0.0 l/m 1.5 km/h (1 Bft) O-SO 0.00 h 0.0 UV-I 0 W/m 13.0 C 13.9 C 2.6 km/h (1 Bft)
19.08.2006 05:00 13.4 C 96 % 1014.8 hPa 0.0 l/m 2.1 km/h (1 Bft) O-SO 0.00 h 0.0 UV-I 0 W/m 12.7 C 13.4 C 3.4 km/h (1 Bft)
19.08.2006 06:00 12.7 C 97 % 1015.1 hPa 0.0 l/m 0.4 km/h (0 Bft) O-SO 0.00 h 0.0 UV-I 15 W/m 12.2 C 12.7 C 0.8 km/h (0 Bft)
19.08.2006 07:00 13.1 C 97 % 1015.4 hPa 0.0 l/m 0.3 km/h (0 Bft) O-SO 0.00 h 0.0 UV-I 43 W/m 12.6 C 13.1 C 0.8 km/h (0 Bft)
19.08.2006 08:00 14.7 C 92 % 1015.5 hPa 0.0 l/m 1.4 km/h (1 Bft) O-SO 0.83 h 1.0 UV-I 221 W/m 13.4 C 14.7 C 2.6 km/h (1 Bft)
19.08.2006 09:00 16.6 C 87 % 1015.4 hPa 0.0 l/m 0.5 km/h (0 Bft) SO 0.13 h 1.6 UV-I 156 W/m 14.4 C 16.6 C 1.4 km/h (1 Bft)
19.08.2006 10:00 19.3 C 77 % 1015.7 hPa 0.0 l/m 2.8 km/h (1 Bft) S-SO 0.80 h 3.4 UV-I 489 W/m 15.2 C 19.3 C 5.9 km/h (2 Bft)
19.08.2006 11:00 21.0 C 69 % 1015.7 hPa 0.0 l/m 4.3 km/h (1 Bft) S-SO 0.92 h 5.1 UV-I 680 W/m 15.0 C 21.0 C 8.1 km/h (2 Bft)
19.08.2006 12:00 22.3 C 64 % 1015.5 hPa 0.0 l/m 3.5 km/h (1 Bft) S-SO 0.62 h 5.4 UV-I 632 W/m 15.1 C 22.3 C 6.7 km/h (2 Bft)
19.08.2006 13:00 21.9 C 68 % 1015.3 hPa 0.0 l/m 2.0 km/h (1 Bft) S-SO 0.03 h 3.4 UV-I 279 W/m 15.6 C 21.9 C 4.2 km/h (1 Bft)
19.08.2006 14:00 22.9 C 63 % 1014.9 hPa 0.0 l/m 0.7 km/h (0 Bft) S-SO 0.10 h 3.7 UV-I 325 W/m 15.5 C 22.9 C 2.0 km/h (1 Bft)
19.08.2006 15:00 23.9 C 60 % 1014.5 hPa 0.0 l/m 1.8 km/h (1 Bft) N 0.22 h 3.3 UV-I 314 W/m 15.6 C 23.9 C 3.5 km/h (1 Bft)
19.08.2006 16:00 23.2 C 59 % 1014.3 hPa 0.0 l/m 0.3 km/h (0 Bft) S 0.00 h 1.2 UV-I 117 W/m 14.7 C 23.2 C 1.4 km/h (1 Bft)
19.08.2006 17:00 21.2 C 74 % 1015.0 hPa 0.4 l/m 4.9 km/h (1 Bft) S-SO 0.10 h 0.8 UV-I 117 W/m 16.3 C 21.2 C 8.2 km/h (2 Bft)
19.08.2006 18:00 19.7 C 75 % 1016.6 hPa 0.0 l/m 15.2 km/h (3 Bft) W-NW 0.22 h 0.5 UV-I 98 W/m 15.1 C 19.7 C 22.9 km/h (4 Bft)
19.08.2006 19:00 19.2 C 78 % 1017.6 hPa 0.0 l/m 10.2 km/h (2 Bft) W-NW 0.00 h 0.5 UV-I 39 W/m 15.2 C 19.2 C 15.3 km/h (3 Bft)
19.08.2006 20:00 18.4 C 84 % 1018.1 hPa 0.4 l/m 2.0 km/h (1 Bft) SO 0.00 h 0.0 UV-I 6 W/m 15.7 C 18.4 C 3.4 km/h (1 Bft)
19.08.2006 21:00 17.6 C 88 % 1018.8 hPa 0.0 l/m 2.4 km/h (1 Bft) S-SO 0.00 h 0.0 UV-I 0 W/m 15.6 C 17.6 C 4.1 km/h (1 Bft)
19.08.2006 22:00 17.1 C 89 % 1019.5 hPa 0.0 l/m 0.8 km/h (0 Bft) S-SO 0.00 h 0.0 UV-I 0 W/m 15.3 C 17.1 C 2.3 km/h (1 Bft)
19.08.2006 23:00 16.7 C 89 % 1019.6 hPa 0.0 l/m 1.3 km/h (1 Bft) S-SO 0.00 h 0.0 UV-I 0 W/m 14.9 C 16.7 C 3.5 km/h (1 Bft)
20.08.2006 00:00 16.4 C 92 % 1019.9 hPa 0.0 l/m 0.4 km/h (0 Bft) SW 0.00 h 0.0 UV-I 0 W/m 15.1 C 16.4 C 1.2 km/h (1 Bft)
20.08.2006 01:00 16.1 C 94 % 1020.1 hPa 0.0 l/m 0.1 km/h (0 Bft) SO 0.00 h 0.0 UV-I 0 W/m 15.0 C 16.1 C 0.4 km/h (0 Bft)
20.08.2006 02:00 15.4 C 96 % 1020.0 hPa 0.0 l/m 1.4 km/h (1 Bft) SO 0.00 h 0.0 UV-I 0 W/m 14.6 C 15.4 C 2.3 km/h (1 Bft)
20.08.2006 03:00 15.1 C 97 % 1020.1 hPa 0.0 l/m 0.6 km/h (0 Bft) SO 0.00 h 0.0 UV-I 0 W/m 14.6 C 15.1 C 1.2 km/h (1 Bft)
20.08.2006 04:00 14.9 C 97 % 1020.1 hPa 0.0 l/m 0.0 km/h (0 Bft) N 0.00 h 0.0 UV-I 0 W/m 14.5 C 14.9 C 0.0 km/h (0 Bft)
20.08.2006 05:00 14.7 C 98 % 1020.2 hPa 0.0 l/m 0.0 km/h (0 Bft) N 0.00 h 0.0 UV-I 0 W/m 14.3 C 14.7 C 0.0 km/h (0 Bft)
20.08.2006 06:00 14.7 C 98 % 1020.5 hPa 0.0 l/m 0.0 km/h (0 Bft) N 0.00 h 0.0 UV-I 9 W/m 14.3 C 14.7 C 0.0 km/h (0 Bft)
20.08.2006 07:00 14.9 C 98 % 1020.8 hPa 0.0 l/m 0.0 km/h (0 Bft) N 0.00 h 0.0 UV-I 28 W/m 14.5 C 14.9 C 0.0 km/h (0 Bft)
20.08.2006 08:00 15.7 C 97 % 1021.3 hPa 0.0 l/m 0.0 km/h (0 Bft) N 0.42 h 0.9 UV-I 177 W/m 15.2 C 15.7 C 0.0 km/h (0 Bft)
20.08.2006 09:00 17.9 C 83 % 1021.2 hPa 0.2 l/m 4.4 km/h (1 Bft) W 0.55 h 1.7 UV-I 312 W/m 14.9 C 17.9 C 7.0 km/h (2 Bft)
20.08.2006 10:00 18.6 C 75 % 1021.6 hPa 0.0 l/m 10.3 km/h (2 Bft) W 0.32 h 2.7 UV-I 357 W/m 14.2 C 18.6 C 16.1 km/h (3 Bft)
20.08.2006 11:00 19.0 C 74 % 1021.5 hPa 0.0 l/m 11.7 km/h (2 Bft) W-NW 0.17 h 2.6 UV-I 283 W/m 14.2 C 19.0 C 17.3 km/h (3 Bft)
20.08.2006 12:00 18.8 C 76 % 1021.7 hPa 0.0 l/m 8.9 km/h (2 Bft) W-NW 0.03 h 3.3 UV-I 282 W/m 14.4 C 18.8 C 13.5 km/h (3 Bft)
20.08.2006 13:00 21.0 C 64 % 1021.5 hPa 0.0 l/m 14.0 km/h (3 Bft) W-NW 1.00 h 6.4 UV-I 821 W/m 13.9 C 21.0 C 21.5 km/h (4 Bft)
20.08.2006 14:00 21.6 C 58 % 1021.4 hPa 0.0 l/m 14.7 km/h (3 Bft) W-NW 0.50 h 5.2 UV-I 549 W/m 13.1 C 21.6 C 22.1 km/h (4 Bft)
20.08.2006 15:00 22.7 C 55 % 1021.3 hPa 0.0 l/m 12.8 km/h (3 Bft) W 0.67 h 4.8 UV-I 597 W/m 13.1 C 22.7 C 19.9 km/h (4 Bft)
20.08.2006 16:00 21.2 C 60 % 1022.0 hPa 0.0 l/m 20.1 km/h (4 Bft) W-NW 0.88 h 3.6 UV-I 584 W/m 13.1 C 21.2 C 29.5 km/h (5 Bft)
20.08.2006 17:00 20.7 C 60 % 1022.3 hPa 0.0 l/m 17.1 km/h (3 Bft) W-NW 0.83 h 2.0 UV-I 397 W/m 12.7 C 20.7 C 25.3 km/h (4 Bft)
20.08.2006 18:00 20.2 C 63 % 1022.0 hPa 0.0 l/m 15.0 km/h (3 Bft) W-NW 0.53 h 0.9 UV-I 186 W/m 13.0 C 20.2 C 22.4 km/h (4 Bft)
20.08.2006 19:00 19.9 C 65 % 1022.0 hPa 0.0 l/m 7.5 km/h (2 Bft) W-NW 0.55 h 0.5 UV-I 86 W/m 13.2 C 19.9 C 11.1 km/h (2 Bft)
20.08.2006 20:00 18.3 C 72 % 1022.5 hPa 0.0 l/m 3.7 km/h (1 Bft) W 0.07 h 0.0 UV-I 14 W/m 13.0 C 18.3 C 5.8 km/h (2 Bft)
20.08.2006 21:00 17.5 C 74 % 1023.1 hPa 0.0 l/m 1.5 km/h (1 Bft) W-SW 0.00 h 0.0 UV-I 0 W/m 12.9 C 17.5 C 3.6 km/h (1 Bft)
20.08.2006 22:00 17.0 C 77 % 1023.2 hPa 0.0 l/m 1.5 km/h (1 Bft) S-SO 0.00 h 0.0 UV-I 0 W/m 12.8 C 17.0 C 3.6 km/h (1 Bft)
20.08.2006 23:00 15.3 C 86 % 1023.2 hPa 0.0 l/m 2.3 km/h (1 Bft) SO 0.00 h 0.0 UV-I 0 W/m 12.9 C 15.3 C 3.8 km/h (1 Bft)
Min-Datum _ 15.08.06 15.08.06 18.08.06 - 14.08.06 - - - - 15.08.06 15.08.06 14.08.06
_ Min-Zeit 02:11 17:38 03:15 - 00:00 - - - - 17:38 02:11 00:00
Minimum _ 10.6 C 42 % 1001.3 hPa - 0.0 km/h (0 Bft) - - - - 9.0 C 10.6 C 0.0 km/h (0 Bft)
Max-Datum _ 17.08.06 15.08.06 20.08.06 18.08.06 20.08.06 - 14.08.06 17.08.06 17.08.06 17.08.06 17.08.06 20.08.06
_ Max-Zeit 17:21 01:55 21:45 05:05 16:07 - 06:32 13:48 13:49 15:20 17:21 16:07
Maximum _ 25.7 C 99 % 1023.3 hPa 9.4 l/m 33.3 km/h
W-NW (5 Bft)
- 0.02 h 8.6 UV-I 1067 W/m 19.2 C 25.7 C 48.7 km/h
W (6 Bft)
Durchschnitt _ 17.2 C 81 % 1011.7 hPa #20.6 l/m 3.2 km/h (1 Bft) O-SO #41:57 h 2.6 UV-I 280 W/m 13.6 C 17.2 C 5.5 km/h (1 Bft)
© Kaiko 2006